Time;durP1;ratioP1;P1;durP2;ratioP2;P2;SDS_P1;SDS_P2;PMS_P1;PMS_P2;Temp;Humidity;BMP_temperature;BMP_pressure;BME280_temperature;BME280_humidity;BME280_pressure;Samples;Min_cycle;Max_cycle;Signal;HPM_P1;HPM_P2
2022/03/15 00:01:21;;;;;;;7.15;2.97;;;5.30;99.90;;;;;;5071819;28;20381;-81
2022/03/15 00:03:48;;;;;;;14.88;4.55;;;5.30;99.90;;;;;;5054949;28;20037;-77
2022/03/15 00:06:14;;;;;;;9.05;4.28;;;5.30;99.90;;;;;;5057590;28;20032;-81
2022/03/15 00:08:40;;;;;;;10.80;3.40;;;5.30;99.90;;;;;;5060998;28;20159;-80
2022/03/15 00:11:06;;;;;;;6.32;3.42;;;5.40;99.90;;;;;;5077304;28;20234;-79
2022/03/15 00:13:39;;;;;;;9.55;3.92;;;5.40;99.90;;;;;;5076110;28;20033;-81
2022/03/15 00:16:07;;;;;;;13.93;3.38;;;5.40;99.90;;;;;;5069141;28;20634;-80
2022/03/15 00:18:33;;;;;;;10.13;3.63;;;5.40;99.90;;;;;;5075033;28;20094;-81
2022/03/15 00:21:01;;;;;;;11.65;4.30;;;5.40;99.90;;;;;;5074043;28;20446;-81
2022/03/15 00:23:26;;;;;;;7.80;3.08;;;5.40;99.90;;;;;;5074534;28;20082;-81
2022/03/15 00:25:53;;;;;;;8.35;3.42;;;5.40;99.90;;;;;;5073601;28;20029;-80
2022/03/15 00:28:19;;;;;;;8.18;3.63;;;5.30;99.90;;;;;;5074805;28;20029;-81
2022/03/15 00:30:45;;;;;;;4.50;2.97;;;5.30;99.90;;;;;;5067392;28;20497;-77
2022/03/15 00:33:12;;;;;;;11.35;4.45;;;5.20;99.90;;;;;;5054135;28;20033;-82
2022/03/15 00:35:38;;;;;;;8.23;3.42;;;5.20;99.90;;;;;;5065035;28;20438;-80
2022/03/15 00:38:03;;;;;;;7.97;3.55;;;5.20;99.90;;;;;;5073721;28;20032;-80
2022/03/15 00:40:29;;;;;;;7.70;3.53;;;5.10;99.90;;;;;;5072508;28;20041;-81
2022/03/15 00:42:55;;;;;;;7.15;3.50;;;5.10;99.90;;;;;;5073618;28;20020;-81
2022/03/15 00:45:24;;;;;;;7.22;3.28;;;5.10;99.90;;;;;;5057350;28;20056;-80
2022/03/15 00:47:51;;;;;;;10.27;3.17;;;5.10;99.90;;;;;;5053786;28;20116;-79
2022/03/15 00:50:17;;;;;;;7.35;3.45;;;5.20;99.90;;;;;;5061650;28;20040;-81
2022/03/15 00:52:44;;;;;;;6.85;3.08;;;5.20;99.90;;;;;;5074306;28;20381;-80
2022/03/15 00:55:10;;;;;;;11.80;3.40;;;5.20;99.90;;;;;;5071924;28;20059;-79
2022/03/15 00:57:36;;;;;;;8.82;2.88;;;5.20;99.90;;;;;;5054125;28;20040;-79
2022/03/15 01:00:04;;;;;;;5.00;2.63;;;5.20;99.90;;;;;;5062556;28;20048;-79
2022/03/15 01:02:30;;;;;;;8.95;3.75;;;5.10;99.90;;;;;;5074740;28;20028;-79
2022/03/15 01:04:56;;;;;;;7.03;3.63;;;5.10;99.90;;;;;;5073532;28;20382;-79
2022/03/15 01:07:21;;;;;;;8.50;3.85;;;5.10;99.90;;;;;;5073816;28;20020;-79
2022/03/15 01:09:47;;;;;;;11.27;3.90;;;5.20;99.90;;;;;;5064835;28;20040;-75
2022/03/15 01:12:13;;;;;;;9.48;3.33;;;5.20;99.90;;;;;;5053129;28;20112;-79
2022/03/15 01:14:38;;;;;;;9.02;3.60;;;5.20;99.90;;;;;;5052518;28;20462;-79
2022/03/15 01:17:04;;;;;;;10.68;3.30;;;5.20;99.90;;;;;;5053069;28;20433;-79
2022/03/15 01:19:30;;;;;;;6.75;3.22;;;5.20;99.90;;;;;;5058325;28;20060;-79
2022/03/15 01:21:56;;;;;;;9.77;3.33;;;5.20;99.90;;;;;;5073085;28;20460;-79
2022/03/15 01:24:22;;;;;;;5.78;2.63;;;5.20;99.90;;;;;;5065342;28;20024;-79
2022/03/15 01:26:51;;;;;;;7.18;4.22;;;5.20;99.90;;;;;;5053528;28;20025;-75
2022/03/15 01:29:18;;;;;;;7.00;3.43;;;5.10;99.90;;;;;;5060129;28;20024;-78
2022/03/15 01:31:44;;;;;;;7.15;3.47;;;5.10;99.90;;;;;;5073495;28;20039;-79
2022/03/15 01:34:10;;;;;;;9.25;4.00;;;5.10;99.90;;;;;;5072730;28;20020;-79
2022/03/15 01:36:35;;;;;;;6.93;3.60;;;5.10;99.90;;;;;;5073496;28;20067;-79
2022/03/15 01:39:04;;;;;;;7.38;3.33;;;5.10;99.90;;;;;;5067200;28;20021;-76
2022/03/15 01:41:29;;;;;;;9.48;3.45;;;5.10;99.90;;;;;;5052352;28;20036;-79
2022/03/15 01:43:55;;;;;;;9.27;3.75;;;5.10;99.90;;;;;;5052138;28;20432;-79
2022/03/15 01:46:21;;;;;;;8.95;3.47;;;5.10;99.90;;;;;;5053549;28;20032;-78
2022/03/15 01:48:46;;;;;;;9.15;3.88;;;5.10;99.90;;;;;;5059826;28;20035;-78
2022/03/15 01:51:14;;;;;;;7.43;3.42;;;5.10;99.90;;;;;;5072055;28;20416;-78
2022/03/15 01:53:41;;;;;;;11.63;4.30;;;5.10;99.90;;;;;;5072452;28;20029;-78
2022/03/15 01:56:06;;;;;;;10.80;3.70;;;5.10;99.90;;;;;;5071131;28;20025;-78
2022/03/15 01:58:32;;;;;;;10.05;3.80;;;5.00;99.90;;;;;;5067221;28;20462;-75
2022/03/15 02:00:58;;;;;;;6.00;3.00;;;5.10;99.90;;;;;;5052995;28;20079;-78
2022/03/15 02:03:23;;;;;;;7.70;3.38;;;5.00;99.90;;;;;;5052300;28;20429;-77
2022/03/15 02:05:49;;;;;;;9.00;3.20;;;5.10;99.90;;;;;;5052745;28;20383;-75
2022/03/15 02:08:16;;;;;;;8.00;3.38;;;5.10;99.90;;;;;;5053719;28;20041;-78
2022/03/15 02:10:42;;;;;;;9.18;3.80;;;5.10;99.90;;;;;;5072198;28;20059;-78
2022/03/15 02:13:10;;;;;;;6.93;3.63;;;5.00;99.90;;;;;;5069858;28;20035;-78
2022/03/15 02:15:36;;;;;;;13.80;3.90;;;5.00;99.90;;;;;;5072620;28;20024;-77
2022/03/15 02:18:03;;;;;;;10.63;3.65;;;5.10;99.90;;;;;;5066104;28;20071;-75
2022/03/15 02:20:29;;;;;;;13.63;3.10;;;5.10;99.90;;;;;;5052638;28;20044;-76
2022/03/15 02:22:55;;;;;;;9.27;4.57;;;5.10;99.90;;;;;;5051944;28;20033;-75
2022/03/15 02:25:21;;;;;;;7.78;3.38;;;5.10;99.90;;;;;;5052368;28;20066;-76
2022/03/15 02:27:47;;;;;;;5.25;3.13;;;5.10;99.90;;;;;;5056196;28;20020;-76
2022/03/15 02:30:13;;;;;;;9.25;3.78;;;5.10;99.90;;;;;;5070373;28;20964;-76
2022/03/15 02:32:38;;;;;;;8.35;4.07;;;5.10;99.90;;;;;;5072359;28;20162;-76
2022/03/15 02:35:05;;;;;;;6.45;2.95;;;5.10;99.90;;;;;;5071565;28;20481;-77
2022/03/15 02:37:31;;;;;;;10.15;3.35;;;5.10;99.90;;;;;;5066651;28;20403;-78
2022/03/15 02:39:57;;;;;;;9.52;3.13;;;5.10;99.90;;;;;;5050465;28;20040;-77
2022/03/15 02:42:23;;;;;;;8.88;3.30;;;5.10;99.90;;;;;;5052450;28;20147;-77
2022/03/15 02:44:49;;;;;;;6.15;3.17;;;5.10;99.90;;;;;;5052203;28;20025;-77
2022/03/15 02:47:14;;;;;;;9.50;3.33;;;5.00;99.90;;;;;;5054020;28;20032;-77
2022/03/15 02:49:40;;;;;;;7.25;3.15;;;5.00;99.90;;;;;;5071999;28;20032;-77
2022/03/15 02:52:06;;;;;;;4.80;2.90;;;5.00;99.90;;;;;;5071088;28;20436;-77
2022/03/15 02:54:32;;;;;;;6.75;2.90;;;5.00;99.90;;;;;;5072089;28;20037;-75
2022/03/15 02:56:58;;;;;;;5.72;3.10;;;4.90;99.90;;;;;;5071370;28;20085;-77
2022/03/15 02:59:23;;;;;;;5.35;3.08;;;4.90;99.90;;;;;;5071919;28;20044;-75
2022/03/15 03:01:50;;;;;;;8.68;2.85;;;4.90;99.90;;;;;;5071207;28;20039;-76
2022/03/15 03:04:15;;;;;;;8.60;3.13;;;4.90;99.90;;;;;;5071621;28;20064;-76
2022/03/15 03:06:43;;;;;;;9.32;3.53;;;5.00;99.90;;;;;;5068801;28;20060;-76
2022/03/15 03:09:11;;;;;;;9.35;3.25;;;5.00;99.90;;;;;;5051050;28;20477;-76
2022/03/15 03:11:37;;;;;;;7.25;3.05;;;4.90;99.90;;;;;;5051594;28;20041;-76
2022/03/15 03:14:04;;;;;;;8.48;3.22;;;4.90;99.90;;;;;;5050891;28;20039;-76
2022/03/15 03:16:30;;;;;;;4.65;2.83;;;4.90;99.90;;;;;;5052150;28;20037;-75
2022/03/15 03:18:58;;;;;;;6.78;2.95;;;4.90;99.90;;;;;;5070933;28;20052;-74
2022/03/15 03:21:27;;;;;;;8.93;3.63;;;4.90;99.90;;;;;;5071674;28;20039;-76
2022/03/15 03:23:53;;;;;;;5.88;2.80;;;4.80;99.90;;;;;;5071386;28;20020;-74
2022/03/15 03:26:24;;;;;;;5.93;3.15;;;4.80;99.90;;;;;;5067294;28;20029;-76
2022/03/15 03:28:52;;;;;;;;;;;4.80;99.90;;;;;;5052199;28;20036;-76
2022/03/15 03:31:18;;;;;;;8.60;3.33;;;4.80;99.90;;;;;;5050948;28;19930;-76
2022/03/15 03:33:44;;;;;;;7.78;3.00;;;4.80;99.90;;;;;;5051916;28;20458;-75
2022/03/15 03:36:10;;;;;;;9.30;3.67;;;4.80;99.90;;;;;;5052573;28;20033;-75
2022/03/15 03:38:37;;;;;;;4.70;2.85;;;4.80;99.90;;;;;;5071478;28;20058;-75
2022/03/15 03:41:04;;;;;;;6.75;3.30;;;4.80;99.90;;;;;;5070724;28;20064;-76
2022/03/15 03:43:30;;;;;;;7.63;3.72;;;4.80;99.90;;;;;;5069539;28;20039;-75
2022/03/15 03:45:56;;;;;;;7.60;3.35;;;4.80;99.90;;;;;;5050548;28;20033;-74
2022/03/15 03:48:23;;;;;;;10.13;3.35;;;4.80;99.90;;;;;;5031744;28;20088;-75
2022/03/15 03:50:50;;;;;;;7.25;3.78;;;4.80;99.90;;;;;;5038006;28;20523;-76
2022/03/15 03:53:17;;;;;;;7.15;3.38;;;4.80;99.90;;;;;;5074234;28;20033;-75
2022/03/15 03:55:43;;;;;;;9.73;3.97;;;4.80;99.90;;;;;;5073302;28;20082;-76
2022/03/15 03:58:08;;;;;;;7.45;3.78;;;4.70;99.90;;;;;;5055016;28;20021;-74
2022/03/15 04:00:35;;;;;;;9.20;4.60;;;4.70;99.90;;;;;;5056210;28;20082;-76
2022/03/15 04:03:00;;;;;;;8.27;4.32;;;4.80;99.90;;;;;;5054605;28;20367;-75
2022/03/15 04:05:30;;;;;;;9.93;4.07;;;4.80;99.90;;;;;;5053973;28;20029;-75
2022/03/15 04:07:59;;;;;;;8.10;4.28;;;4.70;99.90;;;;;;5050713;28;20382;-73
2022/03/15 04:10:28;;;;;;;13.43;4.47;;;4.80;99.90;;;;;;5055859;28;20406;-76
2022/03/15 04:12:55;;;;;;;11.35;3.80;;;4.80;99.90;;;;;;5054841;28;20029;-74
2022/03/15 04:15:22;;;;;;;10.35;3.83;;;4.70;99.90;;;;;;5089861;28;20036;-75
2022/03/15 04:17:48;;;;;;;10.13;4.15;;;4.70;99.90;;;;;;5075045;28;20043;-77
2022/03/15 04:20:14;;;;;;;7.75;3.33;;;4.80;99.90;;;;;;5073974;28;20094;-76
2022/03/15 04:22:39;;;;;;;9.82;3.85;;;4.70;99.90;;;;;;5074883;28;20503;-76
2022/03/15 04:25:06;;;;;;;11.60;4.68;;;4.70;99.90;;;;;;5073043;28;20074;-75
2022/03/15 04:27:32;;;;;;;10.80;4.35;;;4.70;99.90;;;;;;5054991;28;20091;-74
2022/03/15 04:29:58;;;;;;;6.80;3.53;;;4.70;99.90;;;;;;5053733;28;20028;-74
2022/03/15 04:32:24;;;;;;;10.70;3.83;;;4.70;99.90;;;;;;5054608;28;20033;-76
2022/03/15 04:34:50;;;;;;;7.07;3.58;;;4.70;99.90;;;;;;5054549;28;20032;-76
2022/03/15 04:37:16;;;;;;;9.15;4.05;;;4.70;99.90;;;;;;5072086;28;20105;-76
2022/03/15 04:39:41;;;;;;;7.35;3.65;;;4.70;99.90;;;;;;5072738;28;20457;-74
2022/03/15 04:42:07;;;;;;;7.60;3.85;;;4.70;99.90;;;;;;5053675;28;20170;-74
2022/03/15 04:44:33;;;;;;;6.70;3.85;;;4.70;99.90;;;;;;5054463;28;20028;-75
2022/03/15 04:46:59;;;;;;;13.85;4.50;;;4.70;99.90;;;;;;5073561;28;20037;-74
2022/03/15 04:49:24;;;;;;;8.48;4.03;;;4.60;99.90;;;;;;5074217;28;20028;-75
2022/03/15 04:51:50;;;;;;;9.70;4.78;;;4.60;99.90;;;;;;5074303;28;20029;-75
2022/03/15 04:54:16;;;;;;;8.57;4.45;;;4.60;99.90;;;;;;5073600;28;20055;-75
2022/03/15 04:56:42;;;;;;;6.85;4.10;;;4.60;99.90;;;;;;5056082;28;20028;-76
2022/03/15 04:59:08;;;;;;;10.77;3.90;;;4.60;99.90;;;;;;5053350;28;20053;-74
2022/03/15 05:01:34;;;;;;;9.05;4.63;;;4.60;99.90;;;;;;5054075;28;20033;-74
2022/03/15 05:04:01;;;;;;;8.90;4.50;;;4.60;99.90;;;;;;5052166;28;20040;-73
2022/03/15 05:06:26;;;;;;;9.20;4.32;;;4.60;99.90;;;;;;5073481;28;20538;-75
2022/03/15 05:08:52;;;;;;;10.27;4.40;;;4.60;99.90;;;;;;5073952;28;20042;-75
2022/03/15 05:11:18;;;;;;;9.60;4.40;;;4.60;99.90;;;;;;5073139;28;20036;-74
2022/03/15 05:13:47;;;;;;;11.75;5.00;;;4.60;99.90;;;;;;5073970;28;20032;-74
2022/03/15 05:16:18;;;;;;;9.77;5.13;;;4.60;99.90;;;;;;5072269;28;20028;-75
2022/03/15 05:18:45;;;;;;;10.77;4.65;;;4.60;99.90;;;;;;5074065;28;20021;-76
2022/03/15 05:21:17;;;;;;;11.32;4.70;;;4.60;99.90;;;;;;5071727;28;20024;-76
2022/03/15 05:23:46;;;;;;;10.63;4.25;;;4.60;99.90;;;;;;5062976;28;20025;-74
2022/03/15 05:26:13;;;;;;;15.20;5.97;;;4.60;99.90;;;;;;5069319;28;20027;-72
2022/03/15 05:28:39;;;;;;;14.07;5.57;;;4.60;99.90;;;;;;5072856;28;20445;-75
2022/03/15 05:31:05;;;;;;;11.55;4.90;;;4.70;99.90;;;;;;5051470;28;20073;-76
2022/03/15 05:33:31;;;;;;;12.02;4.72;;;4.70;99.90;;;;;;5053536;28;20024;-75
2022/03/15 05:35:56;;;;;;;8.15;3.85;;;4.70;99.90;;;;;;5072263;28;20067;-73
2022/03/15 05:38:22;;;;;;;9.43;3.30;;;4.80;99.90;;;;;;5072651;28;20052;-75
2022/03/15 05:40:48;;;;;;;6.28;3.47;;;4.80;99.90;;;;;;5073314;28;20078;-75
2022/03/15 05:43:14;;;;;;;7.93;2.63;;;4.80;99.90;;;;;;5070357;28;20382;-75
2022/03/15 05:45:40;;;;;;;6.35;2.90;;;4.80;99.90;;;;;;5059186;28;20040;-75
2022/03/15 05:48:06;;;;;;;8.55;3.03;;;4.80;99.90;;;;;;5060296;28;20480;-76
2022/03/15 05:50:32;;;;;;;7.78;3.30;;;4.80;99.90;;;;;;5061505;28;20039;-75
2022/03/15 05:53:02;;;;;;;10.15;3.95;;;4.80;99.90;;;;;;5065751;28;20079;-74
2022/03/15 05:55:28;;;;;;;;;;;4.80;99.90;;;;;;5055465;28;20020;-75
2022/03/15 05:57:53;;;;;;;11.25;4.60;;;4.80;99.90;;;;;;5053196;28;20316;-75
2022/03/15 06:00:20;;;;;;;14.07;4.85;;;4.80;99.90;;;;;;5053544;28;20075;-73
2022/03/15 06:02:46;;;;;;;12.43;4.13;;;4.90;99.90;;;;;;5053594;28;20374;-74
2022/03/15 06:05:12;;;;;;;13.38;3.58;;;4.90;99.90;;;;;;5053569;28;20032;-75
2022/03/15 06:07:46;;;;;;;10.13;3.72;;;4.90;99.90;;;;;;5052122;28;20057;-75
2022/03/15 06:10:11;;;;;;;9.60;4.43;;;5.00;99.90;;;;;;5052191;28;20064;-76
2022/03/15 06:12:37;;;;;;;8.13;3.17;;;5.10;99.90;;;;;;5061593;28;20068;-74
2022/03/15 06:15:03;;;;;;;10.18;3.58;;;5.10;99.90;;;;;;5070397;28;20063;-74
2022/03/15 06:17:31;;;;;;;9.02;4.45;;;5.10;99.90;;;;;;5072463;28;20469;-75
2022/03/15 06:19:58;;;;;;;16.50;4.47;;;5.20;99.90;;;;;;5060184;28;20425;-75
2022/03/15 06:22:23;;;;;;;14.90;4.78;;;5.20;99.90;;;;;;5058442;28;20028;-75
2022/03/15 06:24:49;;;;;;;8.63;4.57;;;5.30;99.90;;;;;;5072070;28;20074;-76
2022/03/15 06:27:15;;;;;;;12.32;5.53;;;5.40;99.90;;;;;;5071938;28;20032;-76
2022/03/15 06:29:40;;;;;;;14.82;5.00;;;5.40;99.90;;;;;;5063000;28;20466;-75
2022/03/15 06:32:07;;;;;;;8.70;4.70;;;5.40;99.90;;;;;;5051653;28;20029;-75
2022/03/15 06:34:33;;;;;;;9.90;4.72;;;5.40;99.90;;;;;;5052516;28;20024;-71
2022/03/15 06:36:59;;;;;;;15.40;5.80;;;5.50;99.90;;;;;;5059704;28;20033;-69
2022/03/15 06:39:25;;;;;;;11.25;5.60;;;5.50;99.90;;;;;;5065782;28;20025;-85
2022/03/15 06:41:51;;;;;;;13.90;5.40;;;5.60;99.90;;;;;;5054830;28;20056;-77
2022/03/15 06:44:17;;;;;;;8.93;4.97;;;5.60;99.90;;;;;;5050152;28;20459;-75
2022/03/15 06:46:43;;;;;;;10.30;5.78;;;5.70;99.90;;;;;;5057390;28;20025;-79
2022/03/15 06:51:04;;;;;;;13.13;5.70;;;5.90;99.90;;;;;;5128568;27;20362;-72
2022/03/15 06:53:30;;;;;;;12.80;5.70;;;5.90;99.90;;;;;;5109553;28;20047;-69
2022/03/15 06:55:56;;;;;;;14.77;5.93;;;6.10;99.90;;;;;;5109764;28;20452;-71
2022/03/15 06:58:21;;;;;;;8.65;4.45;;;6.20;99.90;;;;;;5108641;28;20027;-69
2022/03/15 07:00:47;;;;;;;12.68;4.45;;;6.40;99.90;;;;;;5092190;28;20103;-72
2022/03/15 07:03:14;;;;;;;9.70;4.18;;;6.50;99.90;;;;;;5071385;28;20021;-82
2022/03/15 07:05:40;;;;;;;16.42;5.93;;;6.70;99.90;;;;;;5089932;28;20039;-72
2022/03/15 07:08:06;;;;;;;20.52;5.20;;;6.80;99.90;;;;;;5107889;28;20032;-72
2022/03/15 07:10:32;;;;;;;9.70;5.00;;;6.90;99.90;;;;;;5089033;28;20032;-70
2022/03/15 07:12:58;;;;;;;14.25;5.85;;;7.00;99.90;;;;;;5088410;28;20024;-70
2022/03/15 07:15:24;;;;;;;12.93;5.47;;;7.10;99.90;;;;;;5101789;28;20028;-70
2022/03/15 07:17:55;;;;;;;11.43;4.93;;;7.00;99.90;;;;;;5088789;28;20016;-71
2022/03/15 07:20:22;;;;;;;8.55;4.65;;;7.10;99.90;;;;;;5089602;28;20039;-70
2022/03/15 07:22:48;;;;;;;10.75;5.80;;;7.10;99.90;;;;;;5095231;28;20038;-70
2022/03/15 07:25:15;;;;;;;15.85;5.82;;;7.10;99.90;;;;;;5088932;28;20020;-71
2022/03/15 07:27:40;;;;;;;8.85;4.80;;;7.10;99.90;;;;;;5070161;28;20024;-72
2022/03/15 07:30:07;;;;;;;10.38;5.25;;;7.20;99.90;;;;;;5088864;28;20099;-71
2022/03/15 07:32:33;;;;;;;10.68;5.63;;;7.20;99.90;;;;;;5100139;28;20047;-71
2022/03/15 07:34:58;;;;;;;11.18;5.20;;;7.20;99.90;;;;;;5108693;28;20108;-71
2022/03/15 07:37:24;;;;;;;10.27;5.18;;;7.20;99.90;;;;;;5108032;28;20039;-71
2022/03/15 07:39:50;;;;;;;12.93;5.43;;;7.20;99.90;;;;;;5108188;28;20024;-71
2022/03/15 07:42:16;;;;;;;13.32;5.40;;;7.20;99.90;;;;;;5098320;28;20424;-71
2022/03/15 07:44:45;;;;;;;12.48;4.97;;;7.20;99.90;;;;;;5087767;28;20038;-71
2022/03/15 07:47:14;;;;;;;12.17;5.20;;;7.30;99.90;;;;;;5090845;28;20028;-72
2022/03/15 07:49:40;;;;;;;12.48;5.28;;;7.30;99.90;;;;;;5076175;28;20390;-71
2022/03/15 07:52:06;;;;;;;12.52;6.07;;;7.30;99.90;;;;;;5068184;28;20029;-71
2022/03/15 07:54:32;;;;;;;14.85;5.60;;;7.30;99.90;;;;;;5068916;28;20028;-71
2022/03/15 07:56:57;;;;;;;10.40;5.28;;;7.30;99.90;;;;;;5071765;28;20033;-72
2022/03/15 07:59:23;;;;;;;13.10;5.82;;;7.30;99.90;;;;;;5072228;28;20657;-72
2022/03/15 08:01:49;;;;;;;14.73;5.47;;;7.40;99.90;;;;;;5077893;28;20103;-72
2022/03/15 08:04:14;;;;;;;11.80;6.03;;;7.40;99.90;;;;;;5062352;28;20033;-71
2022/03/15 08:06:40;;;;;;;12.02;5.82;;;7.50;99.90;;;;;;5054121;28;20029;-71
2022/03/15 08:09:06;;;;;;;14.75;5.50;;;7.60;99.90;;;;;;5057504;28;20043;-69
2022/03/15 08:11:33;;;;;;;9.93;5.72;;;7.60;99.90;;;;;;5061486;28;20386;-72
2022/03/15 08:13:58;;;;;;;14.95;5.95;;;7.70;99.90;;;;;;5069625;28;20021;-72
2022/03/15 08:16:25;;;;;;;16.92;5.13;;;7.90;99.90;;;;;;5054420;28;20017;-72
2022/03/15 08:18:52;;;;;;;10.52;5.40;;;8.00;99.90;;;;;;5053911;28;20386;-70
2022/03/15 08:21:19;;;;;;;11.82;5.40;;;8.20;99.90;;;;;;5050578;28;20041;-72
2022/03/15 08:23:45;;;;;;;12.32;5.15;;;8.30;99.90;;;;;;5053120;28;20367;-72
2022/03/15 08:26:11;;;;;;;13.57;4.93;;;8.40;99.90;;;;;;5034990;28;20462;-71
2022/03/15 08:28:37;;;;;;;9.18;4.25;;;8.60;99.90;;;;;;5035941;28;20021;-72
2022/03/15 08:31:03;;;;;;;6.43;3.28;;;8.80;99.90;;;;;;5053690;28;20044;-71
2022/03/15 08:33:29;;;;;;;12.38;3.53;;;9.10;99.90;;;;;;5064865;28;20382;-71
2022/03/15 08:35:54;;;;;;;12.93;3.42;;;9.30;99.90;;;;;;5067216;28;20083;-72
2022/03/15 08:38:20;;;;;;;12.57;2.78;;;9.50;99.90;;;;;;5067944;28;20481;-71
2022/03/15 08:40:46;;;;;;;6.68;2.22;;;9.80;99.90;;;;;;5073228;28;20033;-71
2022/03/15 08:43:12;;;;;;;7.32;3.28;;;10.00;99.40;;;;;;5058595;28;20021;-71
2022/03/15 08:45:38;;;;;;;6.22;2.60;;;10.10;98.70;;;;;;5061621;28;20055;-72
2022/03/15 08:48:05;;;;;;;4.47;2.35;;;10.30;98.20;;;;;;5061389;28;20486;-72
2022/03/15 08:50:30;;;;;;;6.68;2.22;;;10.40;97.50;;;;;;5066736;28;20150;-72
2022/03/15 08:52:57;;;;;;;10.25;2.65;;;10.60;97.10;;;;;;5059634;28;20457;-72
2022/03/15 08:55:23;;;;;;;9.60;2.10;;;10.70;96.50;;;;;;5032370;28;20445;-73
2022/03/15 08:57:49;;;;;;;5.72;2.40;;;10.80;96.00;;;;;;5032129;28;20112;-73
2022/03/15 09:00:15;;;;;;;5.70;2.28;;;10.90;95.70;;;;;;5032523;28;20125;-73
2022/03/15 09:02:41;;;;;;;5.20;2.28;;;11.00;95.70;;;;;;5055451;28;20435;-73
2022/03/15 09:05:07;;;;;;;8.40;2.53;;;11.10;94.90;;;;;;5055351;28;20100;-68
2022/03/15 09:07:36;;;;;;;5.00;2.03;;;11.20;94.00;;;;;;5069940;28;20056;-72
2022/03/15 09:10:02;;;;;;;4.43;1.98;;;11.20;94.10;;;;;;5072824;28;20059;-71
2022/03/15 09:12:28;;;;;;;5.93;2.20;;;11.20;94.20;;;;;;5064068;28;20250;-71
2022/03/15 09:14:54;;;;;;;4.35;2.00;;;11.20;94.40;;;;;;5052672;28;20481;-71
2022/03/15 09:17:19;;;;;;;12.00;2.67;;;11.20;94.80;;;;;;5066071;28;20120;-72
2022/03/15 09:19:45;;;;;;;6.93;2.10;;;11.20;96.20;;;;;;5072701;28;20048;-73
2022/03/15 09:22:11;;;;;;;7.40;2.53;;;11.10;96.70;;;;;;5071609;28;20389;-70
2022/03/15 09:24:37;;;;;;;4.97;2.10;;;11.00;99.20;;;;;;5072777;28;20025;-72
2022/03/15 09:27:04;;;;;;;5.72;2.47;;;11.00;99.90;;;;;;5057549;28;20056;-72
2022/03/15 09:29:31;;;;;;;5.75;2.15;;;10.90;99.90;;;;;;5066270;28;20067;-69
2022/03/15 09:31:57;;;;;;;4.25;2.10;;;10.80;99.90;;;;;;5072625;28;20024;-73
2022/03/15 09:34:23;;;;;;;6.78;2.20;;;10.70;99.90;;;;;;5071676;28;20386;-70
2022/03/15 09:36:49;;;;;;;8.73;2.20;;;10.70;99.90;;;;;;5057523;28;20033;-71
2022/03/15 09:39:15;;;;;;;3.70;2.20;;;10.70;99.90;;;;;;5065346;28;20064;-71
2022/03/15 09:41:41;;;;;;;3.13;2.00;;;10.60;99.90;;;;;;5071895;28;20468;-73
2022/03/15 09:44:09;;;;;;;4.53;1.88;;;10.50;99.90;;;;;;5072458;28;20044;-71
2022/03/15 09:46:42;;;;;;;5.47;2.28;;;10.40;99.90;;;;;;5066660;28;20029;-73
2022/03/15 09:49:08;;;;;;;4.32;2.47;;;10.40;99.90;;;;;;5071499;28;20072;-72
2022/03/15 09:51:37;;;;;;;7.63;2.65;;;10.50;99.90;;;;;;5063237;28;20481;-73
2022/03/15 09:54:05;;;;;;;3.75;2.00;;;10.50;99.90;;;;;;5063741;28;20475;-72
2022/03/15 09:56:34;;;;;;;3.90;2.28;;;10.50;99.90;;;;;;5065348;28;20573;-73
2022/03/15 09:59:00;;;;;;;7.17;2.77;;;10.50;99.90;;;;;;5051922;28;20025;-73
2022/03/15 10:01:26;;;;;;;6.78;2.88;;;10.50;99.90;;;;;;5051105;28;20037;-73
2022/03/15 10:03:52;;;;;;;9.13;4.32;;;10.50;99.90;;;;;;5052115;28;20063;-74
2022/03/15 10:06:19;;;;;;;12.70;4.63;;;10.50;99.90;;;;;;5053480;28;20056;-73
2022/03/15 10:08:45;;;;;;;11.52;4.38;;;10.40;99.90;;;;;;5071640;28;20529;-74
2022/03/15 10:11:12;;;;;;;7.70;4.07;;;10.30;99.90;;;;;;5071025;28;20116;-71
2022/03/15 10:13:39;;;;;;;11.15;4.10;;;10.20;99.90;;;;;;5071969;28;20381;-73
2022/03/15 10:16:05;;;;;;;10.40;4.40;;;10.20;99.90;;;;;;5071425;28;20044;-72
2022/03/15 10:18:31;;;;;;;7.25;3.70;;;10.10;99.90;;;;;;5051178;28;20021;-73
2022/03/15 10:20:57;;;;;;;13.23;4.22;;;10.10;99.90;;;;;;5069750;28;20041;-72
2022/03/15 10:23:29;;;;;;;8.50;3.58;;;10.10;99.90;;;;;;5049997;28;20085;-73
2022/03/15 10:25:56;;;;;;;10.88;4.72;;;10.20;99.90;;;;;;5071131;28;20024;-74
2022/03/15 10:28:23;;;;;;;8.60;3.53;;;10.30;99.90;;;;;;5069855;28;20130;-74
2022/03/15 10:30:49;;;;;;;9.45;3.50;;;10.40;99.90;;;;;;5063670;28;20068;-73
2022/03/15 10:33:17;;;;;;;6.00;2.97;;;10.50;99.90;;;;;;5066766;28;20044;-73
2022/03/15 10:35:45;;;;;;;8.13;3.17;;;10.60;99.90;;;;;;5071021;28;20021;-74
2022/03/15 10:38:12;;;;;;;8.40;3.53;;;10.60;99.90;;;;;;5070099;28;20509;-71
2022/03/15 10:40:44;;;;;;;7.57;3.42;;;10.60;99.90;;;;;;5065884;28;20029;-74
2022/03/15 10:43:15;;;;;;;7.40;2.97;;;10.60;99.90;;;;;;5050160;28;20032;-71
2022/03/15 10:45:44;;;;;;;10.63;3.90;;;10.60;99.90;;;;;;5050576;28;20154;-73
2022/03/15 10:48:36;;;;;;;8.23;3.55;;;10.60;99.90;;;;;;5050768;28;20024;-72
2022/03/15 10:51:22;;;;;;;9.05;4.25;;;10.50;99.90;;;;;;5065131;28;20508;-74
2022/03/15 10:53:49;;;;;;;8.73;4.15;;;10.30;99.90;;;;;;5052507;28;20108;-73
2022/03/15 10:56:22;;;;;;;7.57;5.30;;;10.20;99.90;;;;;;5049915;28;20163;-73
2022/03/15 10:58:59;;;;;;;11.32;4.70;;;10.00;99.90;;;;;;5055651;28;20111;-74
2022/03/15 11:01:26;;;;;;;12.52;4.57;;;9.90;99.90;;;;;;5070330;28;20111;-74
2022/03/15 11:03:53;;;;;;;10.48;4.50;;;9.70;99.90;;;;;;5060042;28;20029;-73
2022/03/15 11:06:43;;;;;;;9.95;4.30;;;9.60;99.90;;;;;;5056993;28;20377;-74
2022/03/15 11:09:23;;;;;;;11.15;4.43;;;9.60;99.90;;;;;;5070212;28;20094;-74
2022/03/15 11:12:08;;;;;;;8.70;4.90;;;9.50;99.90;;;;;;5070478;28;20059;-73
2022/03/15 11:14:57;;;;;;;11.95;5.53;;;9.50;99.90;;;;;;5059775;28;20028;-72
2022/03/15 11:17:25;;;;;;;9.95;4.78;;;9.40;99.90;;;;;;5056939;28;20453;-73
2022/03/15 11:19:58;;;;;;;13.50;5.63;;;9.30;99.90;;;;;;5069807;28;20032;-72
2022/03/15 11:22:26;;;;;;;12.88;6.00;;;9.30;99.90;;;;;;5069817;28;20115;-73
2022/03/15 11:25:12;;;;;;;14.00;5.88;;;9.30;99.90;;;;;;5069848;28;20509;-71
2022/03/15 11:27:41;;;;;;;13.55;6.40;;;9.20;99.90;;;;;;5069702;28;20054;-73
2022/03/15 11:30:10;;;;;;;8.05;5.47;;;9.20;99.90;;;;;;5071333;28;20094;-73
2022/03/15 11:32:37;;;;;;;9.80;5.68;;;9.20;99.90;;;;;;5071100;28;20032;-75
2022/03/15 11:35:04;;;;;;;9.65;5.05;;;9.20;99.90;;;;;;5071477;28;20025;-74
2022/03/15 11:37:30;;;;;;;13.20;5.70;;;9.10;99.90;;;;;;5071688;28;20028;-73
2022/03/15 11:39:58;;;;;;;9.98;6.22;;;9.00;99.90;;;;;;5056381;28;20106;-71
2022/03/15 11:42:26;;;;;;;15.52;6.13;;;8.80;99.90;;;;;;5073710;28;20036;-71
2022/03/15 11:45:02;;;;;;;9.85;6.05;;;8.70;99.90;;;;;;5061614;28;20029;-72
2022/03/15 11:47:27;;;;;;;13.68;6.80;;;8.60;99.90;;;;;;5064585;28;20397;-72
2022/03/15 11:50:10;;;;;;;10.48;6.03;;;8.60;99.90;;;;;;5073921;28;20045;-72
2022/03/15 11:53:06;;;;;;;13.02;6.55;;;8.50;99.90;;;;;;5064459;28;20037;-72
2022/03/15 11:55:49;;;;;;;9.23;5.88;;;8.50;99.90;;;;;;5053720;28;20040;-72
2022/03/15 11:58:28;;;;;;;18.48;6.90;;;8.50;99.90;;;;;;5070498;28;20534;-70
2022/03/15 12:00:57;;;;;;;14.00;7.25;;;8.50;99.90;;;;;;5074136;28;20553;-79
2022/03/15 12:03:23;;;;;;;11.80;6.53;;;8.60;99.90;;;;;;5057936;28;20434;-77
2022/03/15 12:05:55;;;;;;;9.95;6.40;;;8.70;99.90;;;;;;5055126;28;20025;-77
2022/03/15 12:08:35;;;;;;;11.25;7.15;;;8.70;99.90;;;;;;5039405;28;20033;-80
2022/03/15 12:11:04;;;;;;;12.32;6.70;;;8.70;99.90;;;;;;5055284;28;20069;-73
2022/03/15 12:13:42;;;;;;;15.57;6.90;;;8.70;99.90;;;;;;5067888;28;20158;-73
2022/03/15 12:16:18;;;;;;;12.98;6.63;;;8.80;99.90;;;;;;5054001;28;20481;-75
2022/03/15 12:18:45;;;;;;;8.93;5.97;;;8.70;99.90;;;;;;5054263;28;20021;-72
2022/03/15 12:21:11;;;;;;;11.95;6.40;;;8.70;99.90;;;;;;5069197;28;20036;-72
2022/03/15 12:23:42;;;;;;;13.80;6.80;;;8.80;99.90;;;;;;5053301;28;20329;-72
2022/03/15 12:26:23;;;;;;;12.60;6.70;;;8.80;99.90;;;;;;5053768;28;20063;-72
2022/03/15 12:29:02;;;;;;;10.48;6.30;;;8.80;99.90;;;;;;5053388;28;20036;-70
2022/03/15 12:31:47;;;;;;;8.55;5.47;;;8.80;99.90;;;;;;5072335;28;20021;-72
2022/03/15 12:34:15;;;;;;;8.07;5.53;;;8.80;99.90;;;;;;5064972;28;20029;-71
2022/03/15 12:36:47;;;;;;;12.55;5.60;;;8.70;99.90;;;;;;5053148;28;20037;-72
2022/03/15 12:39:15;;;;;;;8.95;5.47;;;8.60;99.90;;;;;;5053723;28;20025;-77
2022/03/15 12:41:41;;;;;;;10.30;6.10;;;8.50;99.90;;;;;;5053243;28;20029;-73
2022/03/15 12:44:08;;;;;;;10.13;5.75;;;8.40;99.90;;;;;;5053197;28;20370;-72
2022/03/15 12:46:37;;;;;;;6.30;5.30;;;8.50;99.90;;;;;;5052556;28;20139;-73
2022/03/15 12:49:15;;;;;;;10.75;5.43;;;8.50;99.90;;;;;;5055933;28;20044;-73
2022/03/15 12:51:43;;;;;;;11.02;5.07;;;8.50;99.90;;;;;;5053693;28;20116;-73
2022/03/15 12:54:12;;;;;;;9.85;5.07;;;8.50;99.90;;;;;;5057678;28;20103;-73